sensor_id;sensor_type;location;lat;lon;timestamp;temperature;humidity
70826;SHT31;58446;41.490;22.098;2023-12-29T00:02:03;4.73;77.16
70826;SHT31;58446;41.490;22.098;2023-12-29T00:04:29;4.80;77.27
70826;SHT31;58446;41.490;22.098;2023-12-29T00:06:55;4.79;76.88
70826;SHT31;58446;41.490;22.098;2023-12-29T00:09:21;4.93;76.43
70826;SHT31;58446;41.490;22.098;2023-12-29T00:11:48;5.11;75.59
70826;SHT31;58446;41.490;22.098;2023-12-29T00:14:13;5.16;75.26
70826;SHT31;58446;41.490;22.098;2023-12-29T00:16:39;5.03;75.49
70826;SHT31;58446;41.490;22.098;2023-12-29T00:19:05;5.14;75.51
70826;SHT31;58446;41.490;22.098;2023-12-29T00:21:31;5.00;75.40
70826;SHT31;58446;41.490;22.098;2023-12-29T00:23:57;5.04;75.59
70826;SHT31;58446;41.490;22.098;2023-12-29T00:26:23;4.97;75.92
70826;SHT31;58446;41.490;22.098;2023-12-29T00:28:50;5.04;75.87
70826;SHT31;58446;41.490;22.098;2023-12-29T00:31:16;5.11;75.63
70826;SHT31;58446;41.490;22.098;2023-12-29T00:33:43;5.13;75.83
70826;SHT31;58446;41.490;22.098;2023-12-29T00:36:17;4.96;76.33
70826;SHT31;58446;41.490;22.098;2023-12-29T00:38:44;5.00;76.10
70826;SHT31;58446;41.490;22.098;2023-12-29T00:41:10;4.97;76.15
70826;SHT31;58446;41.490;22.098;2023-12-29T00:43:36;4.89;75.03
70826;SHT31;58446;41.490;22.098;2023-12-29T00:46:02;4.56;74.44
70826;SHT31;58446;41.490;22.098;2023-12-29T00:48:36;4.45;75.46
70826;SHT31;58446;41.490;22.098;2023-12-29T00:51:03;4.70;76.38
70826;SHT31;58446;41.490;22.098;2023-12-29T00:53:29;4.70;76.05
70826;SHT31;58446;41.490;22.098;2023-12-29T00:55:58;4.75;75.62
70826;SHT31;58446;41.490;22.098;2023-12-29T00:58:24;4.63;75.51
70826;SHT31;58446;41.490;22.098;2023-12-29T01:00:50;4.42;75.23
70826;SHT31;58446;41.490;22.098;2023-12-29T01:03:16;4.01;74.16
70826;SHT31;58446;41.490;22.098;2023-12-29T01:05:42;3.70;77.06
70826;SHT31;58446;41.490;22.098;2023-12-29T01:08:08;3.49;77.14
70826;SHT31;58446;41.490;22.098;2023-12-29T01:10:34;3.12;77.88
70826;SHT31;58446;41.490;22.098;2023-12-29T01:13:00;2.87;78.86
70826;SHT31;58446;41.490;22.098;2023-12-29T01:15:26;3.38;80.08
70826;SHT31;58446;41.490;22.098;2023-12-29T01:17:52;3.69;79.03
70826;SHT31;58446;41.490;22.098;2023-12-29T01:20:18;3.50;77.56
70826;SHT31;58446;41.490;22.098;2023-12-29T01:22:44;3.70;78.54
70826;SHT31;58446;41.490;22.098;2023-12-29T01:25:10;3.83;78.19
70826;SHT31;58446;41.490;22.098;2023-12-29T01:27:36;4.01;77.85
70826;SHT31;58446;41.490;22.098;2023-12-29T01:30:02;4.21;77.34
70826;SHT31;58446;41.490;22.098;2023-12-29T01:32:28;4.35;76.60
70826;SHT31;58446;41.490;22.098;2023-12-29T01:34:54;4.44;76.23
70826;SHT31;58446;41.490;22.098;2023-12-29T01:37:20;4.48;76.02
70826;SHT31;58446;41.490;22.098;2023-12-29T01:39:45;4.56;75.43
70826;SHT31;58446;41.490;22.098;2023-12-29T01:42:11;4.46;75.43
70826;SHT31;58446;41.490;22.098;2023-12-29T01:44:37;4.44;75.35
70826;SHT31;58446;41.490;22.098;2023-12-29T01:47:05;4.25;75.98
70826;SHT31;58446;41.490;22.098;2023-12-29T01:49:36;4.08;76.17
70826;SHT31;58446;41.490;22.098;2023-12-29T01:52:03;4.01;76.62
70826;SHT31;58446;41.490;22.098;2023-12-29T01:54:33;4.07;76.77
70826;SHT31;58446;41.490;22.098;2023-12-29T01:57:01;4.15;76.40
70826;SHT31;58446;41.490;22.098;2023-12-29T01:59:28;4.11;76.54
70826;SHT31;58446;41.490;22.098;2023-12-29T02:01:54;4.08;76.44
70826;SHT31;58446;41.490;22.098;2023-12-29T02:04:27;3.62;75.39
70826;SHT31;58446;41.490;22.098;2023-12-29T02:06:54;3.08;77.79
70826;SHT31;58446;41.490;22.098;2023-12-29T02:09:21;2.88;77.36
70826;SHT31;58446;41.490;22.098;2023-12-29T02:11:47;2.76;80.17
70826;SHT31;58446;41.490;22.098;2023-12-29T02:14:14;3.42;79.64
70826;SHT31;58446;41.490;22.098;2023-12-29T02:22:00;4.08;77.55
70826;SHT31;58446;41.490;22.098;2023-12-29T02:24:26;3.84;78.03
70826;SHT31;58446;41.490;22.098;2023-12-29T02:26:57;3.91;78.45
70826;SHT31;58446;41.490;22.098;2023-12-29T02:29:25;4.01;78.09
70826;SHT31;58446;41.490;22.098;2023-12-29T02:31:55;4.02;77.99
70826;SHT31;58446;41.490;22.098;2023-12-29T02:34:24;4.17;77.75
70826;SHT31;58446;41.490;22.098;2023-12-29T02:36:51;4.35;77.15
70826;SHT31;58446;41.490;22.098;2023-12-29T02:39:17;4.39;76.91
70826;SHT31;58446;41.490;22.098;2023-12-29T02:41:43;4.24;77.53
70826;SHT31;58446;41.490;22.098;2023-12-29T02:44:09;4.41;76.83
70826;SHT31;58446;41.490;22.098;2023-12-29T02:46:35;4.35;76.52
70826;SHT31;58446;41.490;22.098;2023-12-29T02:49:00;3.97;76.18
70826;SHT31;58446;41.490;22.098;2023-12-29T02:51:26;4.07;77.91
70826;SHT31;58446;41.490;22.098;2023-12-29T02:53:52;4.11;77.54
70826;SHT31;58446;41.490;22.098;2023-12-29T02:56:17;4.24;77.18
70826;SHT31;58446;41.490;22.098;2023-12-29T02:58:43;4.12;77.31
70826;SHT31;58446;41.490;22.098;2023-12-29T03:01:11;4.08;77.39
70826;SHT31;58446;41.490;22.098;2023-12-29T03:03:37;4.04;77.41
70826;SHT31;58446;41.490;22.098;2023-12-29T03:06:05;4.07;77.37
70826;SHT31;58446;41.490;22.098;2023-12-29T03:08:31;3.59;77.83
70826;SHT31;58446;41.490;22.098;2023-12-29T03:10:58;3.69;78.23
70826;SHT31;58446;41.490;22.098;2023-12-29T03:13:24;3.50;78.82
70826;SHT31;58446;41.490;22.098;2023-12-29T03:15:50;3.02;79.45
70826;SHT31;58446;41.490;22.098;2023-12-29T03:18:16;3.26;80.92
70826;SHT31;58446;41.490;22.098;2023-12-29T03:20:41;3.53;79.83
70826;SHT31;58446;41.490;22.098;2023-12-29T03:23:07;3.49;79.46
70826;SHT31;58446;41.490;22.098;2023-12-29T03:25:33;3.13;79.44
70826;SHT31;58446;41.490;22.098;2023-12-29T03:27:58;2.61;80.96
70826;SHT31;58446;41.490;22.098;2023-12-29T03:30:25;2.32;81.89
70826;SHT31;58446;41.490;22.098;2023-12-29T03:32:51;2.06;82.37
70826;SHT31;58446;41.490;22.098;2023-12-29T03:35:17;1.75;82.89
70826;SHT31;58446;41.490;22.098;2023-12-29T03:37:43;1.28;83.90
70826;SHT31;58446;41.490;22.098;2023-12-29T03:40:09;1.27;84.67
70826;SHT31;58446;41.490;22.098;2023-12-29T03:42:35;1.24;85.42
70826;SHT31;58446;41.490;22.098;2023-12-29T03:45:01;1.27;85.47
70826;SHT31;58446;41.490;22.098;2023-12-29T03:47:26;0.90;85.60
70826;SHT31;58446;41.490;22.098;2023-12-29T03:49:53;0.92;86.20
70826;SHT31;58446;41.490;22.098;2023-12-29T03:52:19;1.03;86.27
70826;SHT31;58446;41.490;22.098;2023-12-29T03:54:46;1.51;86.12
70826;SHT31;58446;41.490;22.098;2023-12-29T03:57:11;1.99;86.50
70826;SHT31;58446;41.490;22.098;2023-12-29T03:59:37;2.15;85.03
70826;SHT31;58446;41.490;22.098;2023-12-29T04:02:03;2.01;85.06
70826;SHT31;58446;41.490;22.098;2023-12-29T04:04:28;2.15;84.24
70826;SHT31;58446;41.490;22.098;2023-12-29T04:06:54;1.78;84.46
70826;SHT31;58446;41.490;22.098;2023-12-29T04:09:20;2.58;84.67
70826;SHT31;58446;41.490;22.098;2023-12-29T04:11:46;3.07;82.80
70826;SHT31;58446;41.490;22.098;2023-12-29T04:14:11;3.33;81.61
70826;SHT31;58446;41.490;22.098;2023-12-29T04:16:38;3.60;80.15
70826;SHT31;58446;41.490;22.098;2023-12-29T04:19:04;3.67;79.53
70826;SHT31;58446;41.490;22.098;2023-12-29T04:21:30;3.71;79.27
70826;SHT31;58446;41.490;22.098;2023-12-29T04:23:56;3.62;78.28
70826;SHT31;58446;41.490;22.098;2023-12-29T04:26:21;3.36;78.60
70826;SHT31;58446;41.490;22.098;2023-12-29T04:28:47;3.39;79.83
70826;SHT31;58446;41.490;22.098;2023-12-29T04:31:13;3.62;79.44
70826;SHT31;58446;41.490;22.098;2023-12-29T04:33:39;3.67;78.98
70826;SHT31;58446;41.490;22.098;2023-12-29T04:36:05;3.79;78.21
70826;SHT31;58446;41.490;22.098;2023-12-29T04:38:31;3.83;78.09
70826;SHT31;58446;41.490;22.098;2023-12-29T04:40:56;3.79;78.33
70826;SHT31;58446;41.490;22.098;2023-12-29T04:43:22;3.83;78.09
70826;SHT31;58446;41.490;22.098;2023-12-29T04:45:48;3.80;78.14
70826;SHT31;58446;41.490;22.098;2023-12-29T04:48:13;3.69;78.47
70826;SHT31;58446;41.490;22.098;2023-12-29T04:50:39;3.80;78.24
70826;SHT31;58446;41.490;22.098;2023-12-29T04:53:05;3.86;77.82
70826;SHT31;58446;41.490;22.098;2023-12-29T04:55:31;3.86;77.67
70826;SHT31;58446;41.490;22.098;2023-12-29T04:57:56;3.77;77.99
70826;SHT31;58446;41.490;22.098;2023-12-29T05:00:22;3.69;78.13
70826;SHT31;58446;41.490;22.098;2023-12-29T05:02:48;3.66;78.51
70826;SHT31;58446;41.490;22.098;2023-12-29T05:05:14;3.74;78.49
70826;SHT31;58446;41.490;22.098;2023-12-29T05:07:40;3.63;78.73
70826;SHT31;58446;41.490;22.098;2023-12-29T05:10:06;3.84;78.28
70826;SHT31;58446;41.490;22.098;2023-12-29T05:12:32;3.87;77.77
70826;SHT31;58446;41.490;22.098;2023-12-29T05:14:58;3.89;77.72
70826;SHT31;58446;41.490;22.098;2023-12-29T05:17:24;3.55;77.70
70826;SHT31;58446;41.490;22.098;2023-12-29T05:19:49;3.28;78.43
70826;SHT31;58446;41.490;22.098;2023-12-29T05:22:15;3.50;79.23
70826;SHT31;58446;41.490;22.098;2023-12-29T05:24:43;3.60;78.81
70826;SHT31;58446;41.490;22.098;2023-12-29T05:27:11;3.62;78.74
70826;SHT31;58446;41.490;22.098;2023-12-29T05:29:39;3.69;78.58
70826;SHT31;58446;41.490;22.098;2023-12-29T05:32:06;3.70;78.46
70826;SHT31;58446;41.490;22.098;2023-12-29T05:34:32;3.66;78.27
70826;SHT31;58446;41.490;22.098;2023-12-29T05:36:57;3.70;78.57
70826;SHT31;58446;41.490;22.098;2023-12-29T05:39:23;3.79;78.13
70826;SHT31;58446;41.490;22.098;2023-12-29T05:41:49;3.63;78.39
70826;SHT31;58446;41.490;22.098;2023-12-29T05:44:15;3.84;77.79
70826;SHT31;58446;41.490;22.098;2023-12-29T05:46:41;3.84;77.45
70826;SHT31;58446;41.490;22.098;2023-12-29T05:49:07;3.81;77.60
70826;SHT31;58446;41.490;22.098;2023-12-29T05:51:32;3.90;77.13
70826;SHT31;58446;41.490;22.098;2023-12-29T05:53:58;3.73;77.39
70826;SHT31;58446;41.490;22.098;2023-12-29T05:56:24;3.86;77.23
70826;SHT31;58446;41.490;22.098;2023-12-29T05:58:49;3.73;77.39
70826;SHT31;58446;41.490;22.098;2023-12-29T06:01:15;3.84;76.92
70826;SHT31;58446;41.490;22.098;2023-12-29T06:03:41;3.80;77.05
70826;SHT31;58446;41.490;22.098;2023-12-29T06:06:06;3.63;77.51
70826;SHT31;58446;41.490;22.098;2023-12-29T06:08:33;3.55;77.83
70826;SHT31;58446;41.490;22.098;2023-12-29T06:10:58;3.63;77.74
70826;SHT31;58446;41.490;22.098;2023-12-29T06:13:24;3.26;77.26
70826;SHT31;58446;41.490;22.098;2023-12-29T06:15:50;2.29;79.86
70826;SHT31;58446;41.490;22.098;2023-12-29T06:18:15;2.29;81.40
70826;SHT31;58446;41.490;22.098;2023-12-29T06:20:41;1.71;82.84
70826;SHT31;58446;41.490;22.098;2023-12-29T06:23:07;1.78;83.53
70826;SHT31;58446;41.490;22.098;2023-12-29T06:25:32;1.65;82.94
70826;SHT31;58446;41.490;22.098;2023-12-29T06:27:59;1.82;83.60
70826;SHT31;58446;41.490;22.098;2023-12-29T06:30:25;1.92;83.48
70826;SHT31;58446;41.490;22.098;2023-12-29T06:32:51;1.69;82.91
70826;SHT31;58446;41.490;22.098;2023-12-29T06:35:17;1.74;83.16
70826;SHT31;58446;41.490;22.098;2023-12-29T06:37:43;1.75;82.73
70826;SHT31;58446;41.490;22.098;2023-12-29T06:40:09;1.77;82.73
70826;SHT31;58446;41.490;22.098;2023-12-29T06:42:35;1.79;82.98
70826;SHT31;58446;41.490;22.098;2023-12-29T06:45:00;1.61;83.55
70826;SHT31;58446;41.490;22.098;2023-12-29T06:47:27;2.05;84.35
70826;SHT31;58446;41.490;22.098;2023-12-29T06:49:52;2.60;82.81
70826;SHT31;58446;41.490;22.098;2023-12-29T06:52:18;2.81;81.77
70826;SHT31;58446;41.490;22.098;2023-12-29T06:54:44;3.01;80.62
70826;SHT31;58446;41.490;22.098;2023-12-29T06:57:10;2.83;79.37
70826;SHT31;58446;41.490;22.098;2023-12-29T06:59:36;2.73;81.25
70826;SHT31;58446;41.490;22.098;2023-12-29T07:02:02;2.97;80.04
70826;SHT31;58446;41.490;22.098;2023-12-29T07:04:28;2.71;79.97
70826;SHT31;58446;41.490;22.098;2023-12-29T07:06:53;2.65;80.89
70826;SHT31;58446;41.490;22.098;2023-12-29T07:09:19;2.77;80.53
70826;SHT31;58446;41.490;22.098;2023-12-29T07:11:48;2.57;79.63
70826;SHT31;58446;41.490;22.098;2023-12-29T07:14:15;2.54;81.22
70826;SHT31;58446;41.490;22.098;2023-12-29T07:16:41;2.76;81.46
70826;SHT31;58446;41.490;22.098;2023-12-29T07:19:07;2.64;81.37
70826;SHT31;58446;41.490;22.098;2023-12-29T07:21:32;3.02;80.49
70826;SHT31;58446;41.490;22.098;2023-12-29T07:23:58;3.26;79.48
70826;SHT31;58446;41.490;22.098;2023-12-29T07:26:24;3.49;78.44
70826;SHT31;58446;41.490;22.098;2023-12-29T07:28:50;3.25;78.72
70826;SHT31;58446;41.490;22.098;2023-12-29T07:31:20;3.30;78.95
70826;SHT31;58446;41.490;22.098;2023-12-29T07:33:47;2.92;79.34
70826;SHT31;58446;41.490;22.098;2023-12-29T07:36:15;2.30;81.53
70826;SHT31;58446;41.490;22.098;2023-12-29T07:38:41;2.58;82.24
70826;SHT31;58446;41.490;22.098;2023-12-29T07:41:08;3.18;80.27
70826;SHT31;58446;41.490;22.098;2023-12-29T07:43:34;3.19;80.04
70826;SHT31;58446;41.490;22.098;2023-12-29T07:46:01;3.07;80.01
70826;SHT31;58446;41.490;22.098;2023-12-29T07:48:27;3.50;79.14
70826;SHT31;58446;41.490;22.098;2023-12-29T07:50:53;3.18;79.72
70826;SHT31;58446;41.490;22.098;2023-12-29T07:53:19;3.23;79.91
70826;SHT31;58446;41.490;22.098;2023-12-29T07:55:45;3.48;79.35
70826;SHT31;58446;41.490;22.098;2023-12-29T07:58:12;3.33;79.48
70826;SHT31;58446;41.490;22.098;2023-12-29T08:00:38;3.12;80.14
70826;SHT31;58446;41.490;22.098;2023-12-29T08:03:04;3.58;78.94
70826;SHT31;58446;41.490;22.098;2023-12-29T08:05:31;3.73;78.40
70826;SHT31;58446;41.490;22.098;2023-12-29T08:07:56;3.83;78.06
70826;SHT31;58446;41.490;22.098;2023-12-29T08:10:22;3.84;77.80
70826;SHT31;58446;41.490;22.098;2023-12-29T08:12:47;3.76;77.81
70826;SHT31;58446;41.490;22.098;2023-12-29T08:15:13;3.83;77.37
70826;SHT31;58446;41.490;22.098;2023-12-29T08:17:39;3.84;77.43
70826;SHT31;58446;41.490;22.098;2023-12-29T08:20:06;3.81;77.67
70826;SHT31;58446;41.490;22.098;2023-12-29T08:22:32;3.43;77.88
70826;SHT31;58446;41.490;22.098;2023-12-29T08:25:00;3.69;77.88
70826;SHT31;58446;41.490;22.098;2023-12-29T08:27:26;3.87;77.38
70826;SHT31;58446;41.490;22.098;2023-12-29T08:29:52;3.90;77.38
70826;SHT31;58446;41.490;22.098;2023-12-29T08:32:19;3.90;77.26
70826;SHT31;58446;41.490;22.098;2023-12-29T08:34:46;3.73;77.99
70826;SHT31;58446;41.490;22.098;2023-12-29T08:37:11;3.83;77.76
70826;SHT31;58446;41.490;22.098;2023-12-29T08:39:37;3.94;77.30
70826;SHT31;58446;41.490;22.098;2023-12-29T08:42:03;3.46;79.42
70826;SHT31;58446;41.490;22.098;2023-12-29T08:44:29;3.56;79.31
70826;SHT31;58446;41.490;22.098;2023-12-29T08:46:55;3.83;78.48
70826;SHT31;58446;41.490;22.098;2023-12-29T08:49:21;3.81;78.66
70826;SHT31;58446;41.490;22.098;2023-12-29T08:51:47;3.98;77.98
70826;SHT31;58446;41.490;22.098;2023-12-29T08:54:13;3.52;80.55
70826;SHT31;58446;41.490;22.098;2023-12-29T08:56:38;3.66;80.00
70826;SHT31;58446;41.490;22.098;2023-12-29T08:59:04;4.00;78.66
70826;SHT31;58446;41.490;22.098;2023-12-29T09:01:30;4.05;78.69
70826;SHT31;58446;41.490;22.098;2023-12-29T09:03:56;4.07;78.71
70826;SHT31;58446;41.490;22.098;2023-12-29T09:06:22;4.20;78.12
70826;SHT31;58446;41.490;22.098;2023-12-29T09:08:47;4.35;77.47
70826;SHT31;58446;41.490;22.098;2023-12-29T09:11:13;4.44;77.42
70826;SHT31;58446;41.490;22.098;2023-12-29T09:13:39;4.48;77.24
70826;SHT31;58446;41.490;22.098;2023-12-29T09:16:04;3.83;79.70
70826;SHT31;58446;41.490;22.098;2023-12-29T09:18:30;3.66;80.99
70826;SHT31;58446;41.490;22.098;2023-12-29T09:20:56;3.69;81.32
70826;SHT31;58446;41.490;22.098;2023-12-29T09:23:31;3.77;81.66
70826;SHT31;58446;41.490;22.098;2023-12-29T09:26:01;4.01;80.68
70826;SHT31;58446;41.490;22.098;2023-12-29T09:28:34;4.05;81.49
70826;SHT31;58446;41.490;22.098;2023-12-29T09:31:04;4.02;81.79
70826;SHT31;58446;41.490;22.098;2023-12-29T09:33:30;4.37;79.18
70826;SHT31;58446;41.490;22.098;2023-12-29T09:35:59;4.35;80.42
70826;SHT31;58446;41.490;22.098;2023-12-29T09:38:26;4.08;82.26
70826;SHT31;58446;41.490;22.098;2023-12-29T09:40:52;4.20;81.79
70826;SHT31;58446;41.490;22.098;2023-12-29T09:43:19;4.21;82.14
70826;SHT31;58446;41.490;22.098;2023-12-29T09:45:45;4.28;82.39
70826;SHT31;58446;41.490;22.098;2023-12-29T09:48:16;4.45;80.98
70826;SHT31;58446;41.490;22.098;2023-12-29T09:50:45;4.22;82.76
70826;SHT31;58446;41.490;22.098;2023-12-29T09:53:12;4.37;82.09
70826;SHT31;58446;41.490;22.098;2023-12-29T09:55:40;4.41;82.61
70826;SHT31;58446;41.490;22.098;2023-12-29T09:58:08;4.45;82.70
70826;SHT31;58446;41.490;22.098;2023-12-29T10:00:34;4.42;82.39
70826;SHT31;58446;41.490;22.098;2023-12-29T10:03:00;4.28;83.49
70826;SHT31;58446;41.490;22.098;2023-12-29T10:05:26;4.18;84.69
70826;SHT31;58446;41.490;22.098;2023-12-29T10:07:53;4.14;85.24
70826;SHT31;58446;41.490;22.098;2023-12-29T10:10:19;4.17;85.54
70826;SHT31;58446;41.490;22.098;2023-12-29T10:12:50;4.15;86.02
70826;SHT31;58446;41.490;22.098;2023-12-29T10:15:34;4.49;84.15
70826;SHT31;58446;41.490;22.098;2023-12-29T10:18:21;4.53;84.69
70826;SHT31;58446;41.490;22.098;2023-12-29T10:24:21;4.84;81.97
70826;SHT31;58446;41.490;22.098;2023-12-29T10:26:48;4.87;81.23
70826;SHT31;58446;41.490;22.098;2023-12-29T10:29:15;4.90;81.76
70826;SHT31;58446;41.490;22.098;2023-12-29T10:31:40;4.96;83.46
70826;SHT31;58446;41.490;22.098;2023-12-29T10:34:22;4.86;84.22
70826;SHT31;58446;41.490;22.098;2023-12-29T10:36:56;4.80;85.07
70826;SHT31;58446;41.490;22.098;2023-12-29T10:39:22;4.72;83.43
70826;SHT31;58446;41.490;22.098;2023-12-29T10:41:49;4.68;83.75
70826;SHT31;58446;41.490;22.098;2023-12-29T10:44:16;4.65;84.11
70826;SHT31;58446;41.490;22.098;2023-12-29T10:46:42;4.70;83.96
70826;SHT31;58446;41.490;22.098;2023-12-29T10:49:12;4.62;84.21
70826;SHT31;58446;41.490;22.098;2023-12-29T10:51:38;4.68;84.45
70826;SHT31;58446;41.490;22.098;2023-12-29T10:54:05;4.69;84.59
70826;SHT31;58446;41.490;22.098;2023-12-29T10:56:31;4.66;84.57
70826;SHT31;58446;41.490;22.098;2023-12-29T10:59:00;4.63;84.92
70826;SHT31;58446;41.490;22.098;2023-12-29T11:01:26;4.68;84.97
70826;SHT31;58446;41.490;22.098;2023-12-29T11:04:02;4.75;84.51
70826;SHT31;58446;41.490;22.098;2023-12-29T11:06:28;4.79;83.98
70826;SHT31;58446;41.490;22.098;2023-12-29T11:08:56;4.86;84.35
70826;SHT31;58446;41.490;22.098;2023-12-29T11:11:22;4.84;83.92
70826;SHT31;58446;41.490;22.098;2023-12-29T11:13:48;4.91;84.02
70826;SHT31;58446;41.490;22.098;2023-12-29T11:16:17;4.70;85.51
70826;SHT31;58446;41.490;22.098;2023-12-29T11:18:50;4.46;86.50
70826;SHT31;58446;41.490;22.098;2023-12-29T11:21:18;4.48;87.10
70826;SHT31;58446;41.490;22.098;2023-12-29T11:23:44;4.77;85.81
70826;SHT31;58446;41.490;22.098;2023-12-29T11:26:12;5.01;84.59
70826;SHT31;58446;41.490;22.098;2023-12-29T11:28:41;5.19;83.47
70826;SHT31;58446;41.490;22.098;2023-12-29T11:31:08;5.06;84.75
70826;SHT31;58446;41.490;22.098;2023-12-29T11:33:40;4.99;85.87
70826;SHT31;58446;41.490;22.098;2023-12-29T11:36:13;4.84;86.55
70826;SHT31;58446;41.490;22.098;2023-12-29T11:38:47;5.00;85.78
70826;SHT31;58446;41.490;22.098;2023-12-29T11:41:25;5.03;86.23
70826;SHT31;58446;41.490;22.098;2023-12-29T11:43:57;5.14;85.79
70826;SHT31;58446;41.490;22.098;2023-12-29T11:46:43;5.24;85.31
70826;SHT31;58446;41.490;22.098;2023-12-29T11:49:10;5.48;82.24
70826;SHT31;58446;41.490;22.098;2023-12-29T11:51:40;5.50;82.32
70826;SHT31;58446;41.490;22.098;2023-12-29T11:54:08;5.48;82.79
70826;SHT31;58446;41.490;22.098;2023-12-29T11:56:40;5.63;83.41
70826;SHT31;58446;41.490;22.098;2023-12-29T11:59:25;5.65;82.67
70826;SHT31;58446;41.490;22.098;2023-12-29T12:01:55;5.56;83.94
70826;SHT31;58446;41.490;22.098;2023-12-29T12:04:40;5.61;83.83
70826;SHT31;58446;41.490;22.098;2023-12-29T12:07:15;5.58;84.51
70826;SHT31;58446;41.490;22.098;2023-12-29T12:09:41;5.65;85.34
70826;SHT31;58446;41.490;22.098;2023-12-29T12:12:07;5.71;84.86
70826;SHT31;58446;41.490;22.098;2023-12-29T12:14:47;5.88;85.18
70826;SHT31;58446;41.490;22.098;2023-12-29T12:17:33;5.85;84.57
70826;SHT31;58446;41.490;22.098;2023-12-29T12:20:10;5.91;84.45
70826;SHT31;58446;41.490;22.098;2023-12-29T12:22:40;6.01;84.94
70826;SHT31;58446;41.490;22.098;2023-12-29T12:25:07;5.91;84.37
70826;SHT31;58446;41.490;22.098;2023-12-29T12:27:37;6.02;84.95
70826;SHT31;58446;41.490;22.098;2023-12-29T12:30:05;6.23;84.86
70826;SHT31;58446;41.490;22.098;2023-12-29T12:32:31;6.51;83.90
70826;SHT31;58446;41.490;22.098;2023-12-29T12:34:57;6.53;82.46
70826;SHT31;58446;41.490;22.098;2023-12-29T12:37:25;6.58;82.20
70826;SHT31;58446;41.490;22.098;2023-12-29T12:39:52;6.72;83.08
70826;SHT31;58446;41.490;22.098;2023-12-29T12:42:22;6.82;83.72
70826;SHT31;58446;41.490;22.098;2023-12-29T12:45:04;6.85;82.42
70826;SHT31;58446;41.490;22.098;2023-12-29T12:47:44;6.94;82.83
70826;SHT31;58446;41.490;22.098;2023-12-29T12:50:15;7.16;82.96
70826;SHT31;58446;41.490;22.098;2023-12-29T12:52:42;7.13;82.23
70826;SHT31;58446;41.490;22.098;2023-12-29T12:55:10;7.27;82.41
70826;SHT31;58446;41.490;22.098;2023-12-29T12:57:37;7.32;82.86
70826;SHT31;58446;41.490;22.098;2023-12-29T13:00:04;7.22;82.13
70826;SHT31;58446;41.490;22.098;2023-12-29T13:02:31;7.19;81.92
70826;SHT31;58446;41.490;22.098;2023-12-29T13:04:59;6.98;83.05
70826;SHT31;58446;41.490;22.098;2023-12-29T13:07:25;6.91;83.81
70826;SHT31;58446;41.490;22.098;2023-12-29T13:09:52;7.02;84.28
70826;SHT31;58446;41.490;22.098;2023-12-29T13:12:18;7.02;84.47
70826;SHT31;58446;41.490;22.098;2023-12-29T13:14:44;6.99;84.93
70826;SHT31;58446;41.490;22.098;2023-12-29T13:17:15;6.98;85.25
70826;SHT31;58446;41.490;22.098;2023-12-29T13:19:56;7.03;85.19
70826;SHT31;58446;41.490;22.098;2023-12-29T13:22:23;7.19;85.25
70826;SHT31;58446;41.490;22.098;2023-12-29T13:24:50;7.42;84.01
70826;SHT31;58446;41.490;22.098;2023-12-29T13:27:15;7.53;83.18
70826;SHT31;58446;41.490;22.098;2023-12-29T13:29:42;7.47;83.28
70826;SHT31;58446;41.490;22.098;2023-12-29T13:32:12;7.66;81.77
70826;SHT31;58446;41.490;22.098;2023-12-29T13:37:20;7.93;80.01
70826;SHT31;58446;41.490;22.098;2023-12-29T13:40:09;7.99;79.83
70826;SHT31;58446;41.490;22.098;2023-12-29T13:42:38;8.08;79.40
70826;SHT31;58446;41.490;22.098;2023-12-29T13:45:08;8.14;79.18
70826;SHT31;58446;41.490;22.098;2023-12-29T13:47:35;8.21;79.25
70826;SHT31;58446;41.490;22.098;2023-12-29T13:50:04;8.20;78.73
70826;SHT31;58446;41.490;22.098;2023-12-29T13:52:32;8.26;78.22
70826;SHT31;58446;41.490;22.098;2023-12-29T13:54:58;8.26;78.08
70826;SHT31;58446;41.490;22.098;2023-12-29T13:57:31;8.36;77.32
70826;SHT31;58446;41.490;22.098;2023-12-29T14:00:19;8.44;76.72
70826;SHT31;58446;41.490;22.098;2023-12-29T14:10:32;8.48;75.30
70826;SHT31;58446;41.490;22.098;2023-12-29T14:13:17;8.48;75.25
70826;SHT31;58446;41.490;22.098;2023-12-29T14:15:44;8.45;75.28
70826;SHT31;58446;41.490;22.098;2023-12-29T14:20:39;8.42;75.20
70826;SHT31;58446;41.490;22.098;2023-12-29T14:23:07;8.41;75.28
70826;SHT31;58446;41.490;22.098;2023-12-29T14:25:38;8.31;75.94
70826;SHT31;58446;41.490;22.098;2023-12-29T14:28:14;8.25;76.11
70826;SHT31;58446;41.490;22.098;2023-12-29T14:30:40;8.20;76.03
70826;SHT31;58446;41.490;22.098;2023-12-29T14:33:06;8.31;74.76
70826;SHT31;58446;41.490;22.098;2023-12-29T14:35:33;8.35;74.14
70826;SHT31;58446;41.490;22.098;2023-12-29T14:37:59;8.35;73.84
70826;SHT31;58446;41.490;22.098;2023-12-29T14:40:24;8.22;75.18
70826;SHT31;58446;41.490;22.098;2023-12-29T14:42:50;8.04;75.32
70826;SHT31;58446;41.490;22.098;2023-12-29T14:45:21;7.84;75.92
70826;SHT31;58446;41.490;22.098;2023-12-29T14:47:47;7.71;76.48
70826;SHT31;58446;41.490;22.098;2023-12-29T14:50:14;7.56;77.11
70826;SHT31;58446;41.490;22.098;2023-12-29T14:52:41;7.46;77.91
70826;SHT31;58446;41.490;22.098;2023-12-29T14:55:06;7.37;78.37
70826;SHT31;58446;41.490;22.098;2023-12-29T14:57:32;7.29;78.64
70826;SHT31;58446;41.490;22.098;2023-12-29T14:59:58;7.22;78.99
70826;SHT31;58446;41.490;22.098;2023-12-29T15:02:23;7.25;78.87
70826;SHT31;58446;41.490;22.098;2023-12-29T15:04:49;7.16;78.56
70826;SHT31;58446;41.490;22.098;2023-12-29T15:07:16;7.03;78.40
70826;SHT31;58446;41.490;22.098;2023-12-29T15:09:42;6.99;78.89
70826;SHT31;58446;41.490;22.098;2023-12-29T15:12:08;7.01;79.28
70826;SHT31;58446;41.490;22.098;2023-12-29T15:14:34;6.96;79.43
70826;SHT31;58446;41.490;22.098;2023-12-29T15:16:59;7.02;78.98
70826;SHT31;58446;41.490;22.098;2023-12-29T15:19:25;7.05;78.86
70826;SHT31;58446;41.490;22.098;2023-12-29T15:21:50;6.95;78.94
70826;SHT31;58446;41.490;22.098;2023-12-29T15:24:19;6.95;78.82
70826;SHT31;58446;41.490;22.098;2023-12-29T15:26:46;6.80;79.08
70826;SHT31;58446;41.490;22.098;2023-12-29T15:29:11;6.72;79.64
70826;SHT31;58446;41.490;22.098;2023-12-29T15:31:37;6.75;79.96
70826;SHT31;58446;41.490;22.098;2023-12-29T15:34:03;6.67;80.34
70826;SHT31;58446;41.490;22.098;2023-12-29T15:36:29;6.58;80.50
70826;SHT31;58446;41.490;22.098;2023-12-29T15:38:55;6.54;81.06
70826;SHT31;58446;41.490;22.098;2023-12-29T15:41:23;6.53;81.15
70826;SHT31;58446;41.490;22.098;2023-12-29T15:43:48;6.45;81.49
70826;SHT31;58446;41.490;22.098;2023-12-29T15:46:18;6.34;81.89
70826;SHT31;58446;41.490;22.098;2023-12-29T15:48:47;6.45;81.55
70826;SHT31;58446;41.490;22.098;2023-12-29T15:51:13;6.58;81.01
70826;SHT31;58446;41.490;22.098;2023-12-29T15:53:39;6.81;80.22